createdAt,value
2019-03-05T00:00:36.790Z,87.10
2019-03-05T00:01:36.781Z,86.53
2019-03-05T00:02:36.771Z,86.82
2019-03-05T00:03:36.761Z,87.19
2019-03-05T00:04:36.753Z,87.01
2019-03-05T00:05:36.753Z,86.72
2019-03-05T00:06:36.737Z,87.05
2019-03-05T00:07:36.731Z,86.95
2019-03-05T00:08:36.724Z,86.86
2019-03-05T00:09:36.715Z,86.34
2019-03-05T00:10:36.702Z,86.47
2019-03-05T00:11:36.698Z,86.47
2019-03-05T00:12:36.690Z,86.43
2019-03-05T00:13:36.683Z,86.15
2019-03-05T00:14:36.679Z,86.24
2019-03-05T00:15:36.665Z,86.15
2019-03-05T00:16:36.658Z,86.43
2019-03-05T00:17:36.651Z,86.34
2019-03-05T00:18:36.643Z,87.10
2019-03-05T00:19:36.637Z,86.53
2019-03-05T00:20:36.628Z,86.15
2019-03-05T00:21:36.624Z,86.24
2019-03-05T00:22:36.613Z,86.34
2019-03-05T00:23:36.605Z,86.24
2019-03-05T00:24:36.595Z,86.34
2019-03-05T00:25:36.594Z,86.43
2019-03-05T00:26:36.580Z,86.53
2019-03-05T00:27:36.572Z,86.43
2019-03-05T00:28:36.568Z,86.43
2019-03-05T00:29:36.557Z,86.24
2019-03-05T00:30:36.555Z,86.43
2019-03-05T00:31:36.542Z,86.24
2019-03-05T00:32:36.534Z,87.01
2019-03-05T00:33:36.525Z,86.43
2019-03-05T00:34:36.516Z,86.63
2019-03-05T00:35:36.506Z,86.43
2019-03-05T00:36:36.501Z,86.43
2019-03-05T00:37:36.494Z,86.34
2019-03-05T00:38:36.485Z,86.24
2019-03-05T00:39:36.476Z,86.82
2019-03-05T00:40:36.470Z,87.01
2019-03-05T00:41:36.464Z,86.82
2019-03-05T00:42:36.453Z,86.47
2019-03-05T00:43:36.450Z,86.34
2019-03-05T00:44:36.439Z,86.47
2019-03-05T00:45:36.432Z,86.38
2019-03-05T00:46:36.423Z,86.29
2019-03-05T00:47:36.414Z,86.00
2019-03-05T00:48:36.408Z,86.00
2019-03-05T00:49:36.402Z,86.00
2019-03-05T00:50:36.394Z,86.19
2019-03-05T00:51:36.385Z,86.29
2019-03-05T00:52:36.378Z,86.29
2019-03-05T00:53:36.367Z,86.29
2019-03-05T00:54:36.364Z,86.00
2019-03-05T00:55:36.352Z,85.72
2019-03-05T00:56:36.347Z,85.72
2019-03-05T00:57:36.334Z,86.38
2019-03-05T00:58:36.327Z,86.38
2019-03-05T00:59:36.324Z,86.38
2019-03-05T01:00:36.311Z,86.29
2019-03-05T01:01:36.304Z,85.91
2019-03-05T01:02:36.297Z,85.72
2019-03-05T01:03:36.294Z,85.72
2019-03-05T01:04:36.284Z,86.29
2019-03-05T01:05:36.275Z,86.47
2019-03-05T01:06:36.265Z,86.10
2019-03-05T01:07:36.259Z,86.38
2019-03-05T01:08:36.252Z,86.29
2019-03-05T01:09:36.241Z,85.81
2019-03-05T01:10:36.236Z,85.81
2019-03-05T01:11:36.226Z,86.29
2019-03-05T01:12:36.221Z,86.29
2019-03-05T01:13:36.211Z,85.53
2019-03-05T01:14:36.204Z,85.81
2019-03-05T01:15:36.195Z,85.91
2019-03-05T01:16:36.186Z,86.10
2019-03-05T01:17:36.179Z,85.91
2019-03-05T01:18:36.170Z,86.38
2019-03-05T01:19:36.164Z,86.38
2019-03-05T01:20:36.157Z,86.29
2019-03-05T01:21:36.149Z,85.81
2019-03-05T01:22:36.140Z,86.00
2019-03-05T01:23:36.134Z,85.72
2019-03-05T01:24:36.132Z,85.24
2019-03-05T01:25:36.118Z,85.24
2019-03-05T01:26:36.108Z,85.34
2019-03-05T01:27:36.112Z,85.15
2019-03-05T01:28:36.096Z,85.15
2019-03-05T01:29:36.088Z,85.15
2019-03-05T01:30:36.079Z,85.15
2019-03-05T01:31:36.071Z,85.34
2019-03-05T01:32:36.069Z,84.95
2019-03-05T01:33:36.053Z,85.05
2019-03-05T01:34:36.050Z,84.95
2019-03-05T01:35:36.041Z,85.43
2019-03-05T01:36:36.033Z,85.62
2019-03-05T01:37:36.025Z,85.72
2019-03-05T01:38:36.016Z,85.81
2019-03-05T01:39:36.010Z,85.77
2019-03-05T01:40:36.005Z,86.29
2019-03-05T01:41:35.992Z,86.43
2019-03-05T01:42:35.984Z,86.05
2019-03-05T01:43:35.982Z,85.96
2019-03-05T01:44:35.970Z,86.05
2019-03-05T01:45:35.971Z,85.96
2019-03-05T01:46:35.953Z,86.05
2019-03-05T01:47:35.947Z,86.15
2019-03-05T01:48:35.938Z,86.34
2019-03-05T01:49:35.930Z,86.34
2019-03-05T01:50:35.923Z,86.53
2019-03-05T01:51:35.916Z,86.34
2019-03-05T01:52:35.906Z,86.34
2019-03-05T01:53:35.900Z,86.43
2019-03-05T01:54:35.891Z,86.72
2019-03-05T01:55:35.887Z,86.63
2019-03-05T01:56:35.877Z,86.34
2019-03-05T01:57:35.875Z,86.43
2019-03-05T01:58:35.859Z,86.43
2019-03-05T01:59:35.853Z,86.15
2019-03-05T02:00:35.846Z,86.53
2019-03-05T02:01:35.838Z,86.63
2019-03-05T02:02:35.834Z,87.19
2019-03-05T02:03:35.819Z,86.82
2019-03-05T02:04:35.812Z,87.10
2019-03-05T02:05:35.819Z,86.72
2019-03-05T02:06:35.797Z,87.01
2019-03-05T02:07:35.794Z,87.01
2019-03-05T02:08:35.780Z,86.91
2019-03-05T02:09:35.774Z,86.82
2019-03-05T02:10:35.765Z,87.01
2019-03-05T02:11:35.759Z,87.01
2019-03-05T02:12:35.758Z,86.91
2019-03-05T02:13:35.744Z,86.82
2019-03-05T02:14:35.734Z,86.82
2019-03-05T02:15:35.723Z,86.34
2019-03-05T02:16:35.724Z,86.47
2019-03-05T02:17:35.710Z,86.38
2019-03-05T02:18:35.701Z,86.43
2019-03-05T02:19:35.695Z,86.24
2019-03-05T02:20:35.686Z,86.47
2019-03-05T02:21:35.679Z,86.34
2019-03-05T02:22:35.670Z,86.82
2019-03-05T02:23:35.664Z,86.53
2019-03-05T02:24:35.655Z,87.01
2019-03-05T02:25:35.649Z,86.91
2019-03-05T02:26:35.638Z,86.82
2019-03-05T02:27:35.631Z,86.43
2019-03-05T02:28:35.624Z,87.19
2019-03-05T02:29:35.616Z,86.72
2019-03-05T02:30:35.610Z,87.19
2019-03-05T02:31:35.599Z,86.57
2019-03-05T02:32:35.616Z,86.72
2019-03-05T02:33:35.585Z,86.95
2019-03-05T02:34:35.586Z,87.14
2019-03-05T02:35:35.576Z,86.86
2019-03-05T02:36:35.571Z,87.14
2019-03-05T02:37:35.553Z,86.63
2019-03-05T02:38:35.545Z,86.91
2019-03-05T02:39:35.539Z,86.43
2019-03-05T02:40:35.528Z,86.47
2019-03-05T02:41:35.524Z,86.29
2019-03-05T02:42:35.514Z,86.47
2019-03-05T02:43:35.507Z,86.53
2019-03-05T02:44:35.498Z,86.34
2019-03-05T02:45:35.492Z,86.57
2019-03-05T02:46:35.482Z,85.62
2019-03-05T02:47:35.479Z,86.43
2019-03-05T02:48:35.473Z,86.29
2019-03-05T02:49:35.465Z,86.38
2019-03-05T02:50:35.459Z,86.38
2019-03-05T02:51:35.443Z,86.19
2019-03-05T02:52:35.437Z,86.00
2019-03-05T02:53:35.428Z,86.43
2019-03-05T02:54:35.418Z,86.47
2019-03-05T02:55:35.412Z,86.24
2019-03-05T02:56:35.406Z,86.43
2019-03-05T02:57:35.502Z,85.86
2019-03-05T02:58:35.388Z,85.86
2019-03-05T02:59:35.384Z,85.53
2019-03-05T03:01:29.512Z,85.72
2019-03-05T03:02:28.252Z,86.38
2019-03-05T03:03:28.237Z,86.34
2019-03-05T03:05:21.110Z,86.43
2019-03-05T03:06:21.084Z,86.43
2019-03-05T03:08:13.955Z,86.34
2019-03-05T03:09:13.946Z,86.34
2019-03-05T03:11:06.818Z,86.43
2019-03-05T03:12:06.795Z,86.24
2019-03-05T03:13:59.667Z,86.34
2019-03-05T03:14:59.652Z,86.24
2019-03-05T03:16:52.527Z,86.82
2019-03-05T03:17:52.504Z,87.19
2019-03-05T03:19:45.374Z,86.53
2019-03-05T03:20:45.361Z,86.53
2019-03-05T03:22:38.255Z,87.19
2019-03-05T03:23:38.223Z,86.91
2019-03-05T03:24:38.218Z,86.72
2019-03-05T03:25:38.205Z,86.82
2019-03-05T03:26:38.204Z,87.01
2019-03-05T03:27:38.191Z,86.82
2019-03-05T03:28:38.188Z,86.72
2019-03-05T03:29:38.178Z,87.01
2019-03-05T03:30:38.187Z,87.38
2019-03-05T03:31:38.164Z,87.19
2019-03-05T03:32:38.152Z,87.57
2019-03-05T03:33:38.166Z,87.48
2019-03-05T03:34:38.139Z,87.95
2019-03-05T03:35:38.138Z,87.76
2019-03-05T03:36:38.120Z,87.95
2019-03-05T03:37:38.118Z,87.67
2019-03-05T03:38:38.106Z,87.95
2019-03-05T03:39:38.098Z,87.86
2019-03-05T03:40:38.096Z,88.34
2019-03-05T03:41:38.085Z,88.53
2019-03-05T03:42:38.085Z,87.95
2019-03-05T03:43:38.068Z,87.86
2019-03-05T03:44:38.063Z,87.86
2019-03-05T03:45:38.051Z,88.53
2019-03-05T03:46:38.042Z,88.15
2019-03-05T03:47:38.036Z,88.15
2019-03-05T03:48:38.033Z,88.62
2019-03-05T03:49:38.027Z,88.71
2019-03-05T03:50:38.015Z,88.81
2019-03-05T03:51:38.005Z,88.71
2019-03-05T03:52:37.998Z,89.00
2019-03-05T03:53:38.031Z,88.85
2019-03-05T03:54:37.980Z,89.38
2019-03-05T03:55:37.969Z,89.42
2019-03-05T03:56:37.964Z,88.76
2019-03-05T03:57:37.959Z,88.47
2019-03-05T03:58:37.958Z,88.57
2019-03-05T03:59:37.944Z,88.71
2019-03-05T04:00:37.933Z,89.23
2019-03-05T04:01:37.928Z,89.23
2019-03-05T04:02:37.916Z,89.09
2019-03-05T04:03:37.908Z,89.52
2019-03-05T04:04:37.907Z,89.52
2019-03-05T04:05:37.898Z,90.00
2019-03-05T04:06:37.888Z,89.90
2019-03-05T04:07:37.879Z,90.00
2019-03-05T04:08:37.870Z,89.86
2019-03-05T04:09:37.864Z,89.80
2019-03-05T04:10:37.854Z,89.90
2019-03-05T04:11:37.846Z,89.80
2019-03-05T04:12:37.841Z,90.09
2019-03-05T04:13:37.834Z,89.52
2019-03-05T04:14:37.830Z,89.33
2019-03-05T04:15:37.818Z,89.61
2019-03-05T04:16:37.809Z,89.90
2019-03-05T04:17:37.803Z,89.71
2019-03-05T04:18:37.792Z,89.90
2019-03-05T04:19:37.785Z,90.66
2019-03-05T04:20:37.778Z,90.85
2019-03-05T04:21:37.769Z,90.56
2019-03-05T04:22:37.764Z,90.66
2019-03-05T04:23:37.759Z,90.37
2019-03-05T04:24:37.746Z,90.09
2019-03-05T04:25:37.734Z,90.56
2019-03-05T04:26:37.727Z,90.94
2019-03-05T04:27:37.728Z,91.04
2019-03-05T04:28:37.720Z,91.04
2019-03-05T04:29:37.705Z,90.94
2019-03-05T04:30:37.700Z,91.23
2019-03-05T04:31:37.688Z,91.04
2019-03-05T04:32:37.681Z,91.71
2019-03-05T04:33:37.675Z,91.89
2019-03-05T04:34:37.665Z,91.99
2019-03-05T04:35:37.658Z,91.71
2019-03-05T04:36:37.649Z,91.80
2019-03-05T04:37:37.643Z,92.18
2019-03-05T04:38:37.634Z,91.99
2019-03-05T04:39:37.630Z,92.18
2019-03-05T04:40:37.620Z,92.75
2019-03-05T04:41:37.612Z,92.46
2019-03-05T04:42:37.606Z,92.56
2019-03-05T04:43:37.595Z,92.94
2019-03-05T04:44:37.593Z,92.94
2019-03-05T04:45:37.579Z,93.32
2019-03-05T04:46:37.573Z,92.85
2019-03-05T04:47:37.563Z,93.51
2019-03-05T04:48:37.558Z,93.13
2019-03-05T04:49:37.547Z,93.41
2019-03-05T04:50:37.544Z,94.18
2019-03-05T04:51:37.532Z,93.89
2019-03-05T04:52:37.526Z,93.51
2019-03-05T04:53:37.520Z,93.99
2019-03-05T04:54:37.509Z,93.99
2019-03-05T04:55:37.504Z,94.42
2019-03-05T04:56:37.493Z,94.42
2019-03-05T04:57:37.485Z,94.56
2019-03-05T04:58:37.479Z,94.84
2019-03-05T04:59:37.471Z,94.84
2019-03-05T05:00:37.462Z,94.42
2019-03-05T05:01:37.461Z,95.36
2019-03-05T05:02:37.448Z,95.36
2019-03-05T05:03:37.440Z,95.65
2019-03-05T05:04:37.432Z,95.75
2019-03-05T05:05:37.425Z,95.55
2019-03-05T05:06:37.418Z,96.12
2019-03-05T05:07:37.407Z,95.65
2019-03-05T05:08:37.401Z,95.94
2019-03-05T05:09:37.962Z,96.12
2019-03-05T05:10:37.384Z,96.12
2019-03-05T05:11:37.384Z,96.03
2019-03-05T05:12:37.369Z,96.03
2019-03-05T05:13:37.362Z,96.08
2019-03-05T05:14:37.351Z,96.41
2019-03-05T05:15:37.348Z,96.84
2019-03-05T05:16:37.338Z,97.22
2019-03-05T05:17:37.330Z,97.27
2019-03-05T05:18:37.322Z,97.27
2019-03-05T05:19:37.316Z,97.45
2019-03-05T05:20:37.307Z,97.27
2019-03-05T05:21:37.300Z,97.45
2019-03-05T05:22:37.287Z,97.17
2019-03-05T05:23:37.281Z,97.07
2019-03-05T05:24:37.278Z,98.02
2019-03-05T05:25:37.268Z,97.74
2019-03-05T05:26:37.260Z,97.74
2019-03-05T05:27:37.252Z,97.45
2019-03-05T05:28:37.248Z,98.02
2019-03-05T05:29:37.234Z,98.21
2019-03-05T05:30:37.231Z,98.02
2019-03-05T05:31:37.221Z,97.64
2019-03-05T05:32:37.214Z,97.74
2019-03-05T05:33:37.204Z,97.55
2019-03-05T05:34:37.201Z,98.12
2019-03-05T05:35:37.190Z,98.31
2019-03-05T05:36:37.181Z,98.21
2019-03-05T05:37:37.174Z,98.02
2019-03-05T05:38:37.171Z,98.40
2019-03-05T05:39:37.158Z,98.88
2019-03-05T05:40:37.151Z,98.88
2019-03-05T05:41:37.140Z,98.97
2019-03-05T05:42:37.138Z,99.44
2019-03-05T05:43:37.128Z,99.54
2019-03-05T05:44:37.119Z,99.92
2019-03-05T05:45:37.113Z,99.83
2019-03-05T05:46:37.108Z,99.99
2019-03-05T05:47:37.095Z,99.99
2019-03-05T05:48:37.089Z,99.99
2019-03-05T05:49:37.081Z,99.99
2019-03-05T05:50:37.070Z,99.99
2019-03-05T05:51:37.063Z,99.99
2019-03-05T05:52:37.054Z,99.99
2019-03-05T05:53:37.047Z,99.99
2019-03-05T05:54:37.044Z,99.99
2019-03-05T05:55:37.202Z,99.99
2019-03-05T05:56:37.023Z,99.99
2019-03-05T05:57:37.018Z,99.99
2019-03-05T05:58:37.038Z,99.99
2019-03-05T05:59:37.000Z,99.99
2019-03-05T06:00:36.992Z,99.99
2019-03-05T06:01:36.982Z,99.83
2019-03-05T06:02:36.975Z,99.99
2019-03-05T06:03:37.885Z,99.99
2019-03-05T06:04:36.962Z,99.99
2019-03-05T06:05:36.989Z,99.35
2019-03-05T06:06:36.947Z,99.44
2019-03-05T06:07:36.934Z,99.99
2019-03-05T06:08:36.929Z,99.73
2019-03-05T06:09:36.922Z,99.64
2019-03-05T06:10:36.911Z,99.83
2019-03-05T06:11:36.905Z,99.92
2019-03-05T06:12:36.898Z,99.83
2019-03-05T06:13:36.889Z,99.99
2019-03-05T06:14:36.882Z,99.26
2019-03-05T06:15:36.874Z,99.35
2019-03-05T06:16:36.865Z,99.07
2019-03-05T06:17:36.860Z,99.07
2019-03-05T06:18:36.851Z,99.35
2019-03-05T06:19:36.839Z,99.35
2019-03-05T06:20:36.838Z,99.07
2019-03-05T06:21:36.825Z,98.50
2019-03-05T06:22:36.818Z,99.07
2019-03-05T06:23:36.809Z,99.07
2019-03-05T06:24:36.803Z,99.73
2019-03-05T06:25:36.837Z,99.54
2019-03-05T06:26:36.784Z,98.79
2019-03-05T06:27:36.777Z,98.88
2019-03-05T06:28:36.772Z,98.88
2019-03-05T06:29:36.760Z,98.21
2019-03-05T06:30:36.755Z,98.88
2019-03-05T06:31:36.744Z,98.02
2019-03-05T06:32:36.740Z,98.02
2019-03-05T06:33:36.732Z,98.02
2019-03-05T06:34:36.723Z,97.74
2019-03-05T06:35:36.713Z,97.83
2019-03-05T06:36:36.705Z,97.64
2019-03-05T06:37:36.697Z,97.83
2019-03-05T06:38:36.691Z,96.88
2019-03-05T06:39:36.682Z,97.36
2019-03-05T06:40:36.691Z,97.17
2019-03-05T06:41:36.667Z,97.55
2019-03-05T06:42:36.659Z,97.41
2019-03-05T06:43:36.650Z,96.74
2019-03-05T06:44:36.646Z,96.55
2019-03-05T06:45:36.638Z,97.12
2019-03-05T06:46:36.627Z,96.26
2019-03-05T06:47:36.619Z,96.36
2019-03-05T06:48:36.612Z,96.26
2019-03-05T06:49:36.601Z,95.60
2019-03-05T06:50:36.594Z,95.89
2019-03-05T06:51:36.586Z,95.60
2019-03-05T06:52:36.578Z,95.51
2019-03-05T06:53:36.571Z,95.03
2019-03-05T06:54:36.564Z,94.46
2019-03-05T06:55:36.556Z,94.65
2019-03-05T06:56:36.550Z,94.84
2019-03-05T06:57:36.541Z,94.74
2019-03-05T06:58:36.533Z,94.46
2019-03-05T06:59:36.525Z,95.03
2019-03-05T07:00:36.519Z,95.32
2019-03-05T07:01:36.510Z,94.27
2019-03-05T07:02:36.508Z,94.65
2019-03-05T07:03:36.493Z,94.65
2019-03-05T07:04:36.486Z,94.56
2019-03-05T07:05:36.478Z,94.37
2019-03-05T07:06:36.475Z,94.93
2019-03-05T07:07:36.466Z,94.65
2019-03-05T07:08:36.456Z,94.65
2019-03-05T07:09:36.446Z,94.65
2019-03-05T07:10:36.439Z,94.93
2019-03-05T07:11:36.439Z,94.46
2019-03-05T07:12:36.423Z,94.37
2019-03-05T07:13:36.427Z,94.46
2019-03-05T07:14:36.408Z,94.84
2019-03-05T07:15:36.405Z,94.74
2019-03-05T07:16:36.394Z,94.65
2019-03-05T07:17:36.389Z,95.41
2019-03-05T07:18:36.377Z,95.12
2019-03-05T07:19:36.371Z,94.18
2019-03-05T07:20:36.361Z,93.13
2019-03-05T07:21:36.355Z,93.41
2019-03-05T07:22:36.347Z,93.04
2019-03-05T07:23:36.346Z,93.23
2019-03-05T07:24:36.333Z,92.94
2019-03-05T07:25:36.327Z,92.27
2019-03-05T07:26:36.329Z,92.27
2019-03-05T07:27:36.309Z,92.75
2019-03-05T07:28:36.306Z,92.18
2019-03-05T07:29:36.297Z,91.85
2019-03-05T07:30:36.289Z,91.85
2019-03-05T07:31:36.282Z,91.08
2019-03-05T07:32:36.274Z,90.61
2019-03-05T07:33:36.266Z,90.61
2019-03-05T07:34:36.257Z,90.42
2019-03-05T07:35:36.247Z,90.61
2019-03-05T07:36:36.242Z,89.66
2019-03-05T07:37:36.243Z,89.37
2019-03-05T07:38:36.229Z,89.37
2019-03-05T07:39:36.221Z,89.66
2019-03-05T07:40:36.217Z,89.75
2019-03-05T07:41:36.204Z,88.52
2019-03-05T07:42:36.200Z,89.18
2019-03-05T07:43:36.865Z,89.18
2019-03-05T07:44:36.184Z,88.75
2019-03-05T07:45:36.240Z,88.75
2019-03-05T07:46:36.169Z,88.09
2019-03-05T07:47:36.241Z,87.71
2019-03-05T07:48:36.157Z,86.94
2019-03-05T07:49:43.899Z,87.32
2019-03-05T07:50:36.142Z,86.76
2019-03-05T07:51:36.134Z,87.13
2019-03-05T07:52:36.129Z,86.70
2019-03-05T07:53:36.131Z,85.80
2019-03-05T07:54:36.115Z,86.57
2019-03-05T07:55:36.106Z,86.85
2019-03-05T07:56:36.180Z,85.42
2019-03-05T07:57:36.095Z,85.18
2019-03-05T07:58:36.092Z,84.99
2019-03-05T07:59:36.079Z,85.42
2019-03-05T08:00:36.072Z,85.37
2019-03-05T08:01:36.073Z,85.14
2019-03-05T08:02:36.059Z,85.61
2019-03-05T08:03:36.059Z,86.09
2019-03-05T08:04:36.045Z,85.71
2019-03-05T08:05:36.036Z,85.33
2019-03-05T08:06:36.031Z,85.80
2019-03-05T08:07:36.025Z,85.33
2019-03-05T08:08:36.013Z,85.33
2019-03-05T08:09:36.012Z,85.24
2019-03-05T08:10:36.010Z,85.33
2019-03-05T08:11:35.997Z,85.52
2019-03-05T08:12:35.992Z,85.14
2019-03-05T08:13:35.983Z,85.42
2019-03-05T08:14:35.976Z,85.24
2019-03-05T08:15:35.976Z,85.14
2019-03-05T08:16:35.963Z,84.85
2019-03-05T08:17:35.956Z,84.76
2019-03-05T08:18:35.953Z,84.56
2019-03-05T08:19:35.944Z,85.33
2019-03-05T08:20:35.940Z,84.95
2019-03-05T08:21:35.928Z,85.47
2019-03-05T08:22:35.926Z,85.90
2019-03-05T08:23:35.917Z,85.75
2019-03-05T08:24:35.910Z,84.85
2019-03-05T08:25:35.903Z,85.61
2019-03-05T08:26:35.897Z,85.42
2019-03-05T08:27:35.892Z,85.80
2019-03-05T08:28:35.882Z,85.42
2019-03-05T08:29:35.878Z,85.33
2019-03-05T08:30:35.871Z,85.14
2019-03-05T08:31:35.866Z,85.14
2019-03-05T08:32:35.858Z,85.33
2019-03-05T08:33:35.849Z,85.80
2019-03-05T08:34:35.844Z,85.28
2019-03-05T08:35:35.837Z,85.37
2019-03-05T08:36:35.832Z,84.70
2019-03-05T08:37:35.825Z,84.42
2019-03-05T08:38:35.821Z,84.42
2019-03-05T08:39:35.812Z,83.94
2019-03-05T08:40:35.808Z,84.13
2019-03-05T08:41:35.805Z,83.47
2019-03-05T08:42:35.791Z,83.75
2019-03-05T08:43:35.787Z,83.37
2019-03-05T08:44:35.813Z,83.37
2019-03-05T08:45:35.772Z,83.47
2019-03-05T08:46:35.767Z,83.94
2019-03-05T08:47:35.760Z,84.13
2019-03-05T08:48:35.754Z,84.23
2019-03-05T08:49:35.744Z,84.19
2019-03-05T08:50:35.742Z,84.42
2019-03-05T08:51:35.734Z,83.94
2019-03-05T08:52:35.729Z,83.94
2019-03-05T08:53:35.722Z,84.33
2019-03-05T08:54:35.715Z,83.94
2019-03-05T08:55:35.710Z,83.56
2019-03-05T08:56:35.701Z,83.09
2019-03-05T08:57:35.701Z,83.28
2019-03-05T08:58:35.691Z,83.32
2019-03-05T08:59:35.686Z,83.32
2019-03-05T09:00:35.675Z,83.13
2019-03-05T09:01:35.670Z,82.32
2019-03-05T09:02:35.662Z,82.08
2019-03-05T09:03:35.658Z,82.42
2019-03-05T09:04:35.655Z,82.70
2019-03-05T09:05:35.646Z,82.42
2019-03-05T09:06:35.637Z,82.80
2019-03-05T09:07:35.631Z,82.61
2019-03-05T09:08:38.304Z,82.80
2019-03-05T09:09:35.621Z,82.76
2019-03-05T09:10:35.611Z,82.99
2019-03-05T09:11:35.606Z,82.99
2019-03-05T09:12:35.603Z,82.70
2019-03-05T09:13:35.594Z,82.76
2019-03-05T09:14:35.589Z,83.18
2019-03-05T09:15:35.584Z,82.61
2019-03-05T09:16:35.576Z,82.09
2019-03-05T09:17:35.569Z,82.09
2019-03-05T09:18:35.565Z,82.95
2019-03-05T09:19:35.556Z,83.04
2019-03-05T09:20:35.554Z,83.90
2019-03-05T09:21:35.544Z,87.09
2019-03-05T09:22:35.535Z,91.80
2019-03-05T09:23:35.530Z,95.36
2019-03-05T09:24:35.526Z,99.16
2019-03-05T09:25:35.515Z,99.99
2019-03-05T09:26:35.507Z,99.99
2019-03-05T09:27:35.501Z,99.99
2019-03-05T09:28:35.496Z,99.99
2019-03-05T09:29:35.489Z,99.99
2019-03-05T09:30:35.478Z,99.99
2019-03-05T09:31:35.474Z,99.99
2019-03-05T09:32:35.465Z,99.99
2019-03-05T09:33:35.457Z,99.99
2019-03-05T09:34:35.453Z,99.99
2019-03-05T09:35:35.443Z,99.99
2019-03-05T09:36:35.436Z,99.99
2019-03-05T09:37:35.427Z,99.99
2019-03-05T09:38:35.629Z,99.99
2019-03-05T09:39:35.414Z,99.99
2019-03-05T09:40:35.405Z,99.99
2019-03-05T09:41:36.680Z,99.99
2019-03-05T09:42:39.841Z,99.99
2019-03-05T09:43:35.386Z,99.99
2019-03-05T09:44:35.379Z,99.99
2019-03-05T09:45:35.370Z,99.99
2019-03-05T09:46:35.361Z,99.99
2019-03-05T09:47:35.353Z,99.99
2019-03-05T09:48:35.345Z,99.99
2019-03-05T09:49:35.343Z,99.99
2019-03-05T09:50:35.333Z,99.99
2019-03-05T09:51:35.325Z,99.99
2019-03-05T09:52:35.319Z,99.99
2019-03-05T09:53:35.314Z,99.99
2019-03-05T09:54:35.346Z,99.99
2019-03-05T09:55:35.293Z,99.99
2019-03-05T09:56:35.290Z,99.99
2019-03-05T09:57:35.286Z,99.99
2019-03-05T09:58:35.275Z,99.99
2019-03-05T09:59:35.273Z,99.99
2019-03-05T10:00:35.262Z,99.99
2019-03-05T10:01:35.253Z,99.99
2019-03-05T10:02:35.248Z,99.99
2019-03-05T10:03:35.242Z,99.99
2019-03-05T10:04:35.233Z,99.99
2019-03-05T10:05:35.227Z,99.99
2019-03-05T10:06:35.217Z,99.99
2019-03-05T10:07:35.211Z,98.41
2019-03-05T10:08:35.206Z,98.31
2019-03-05T10:09:35.195Z,98.79
2019-03-05T10:10:35.189Z,97.93
2019-03-05T10:11:35.183Z,98.12
2019-03-05T10:12:35.176Z,97.64
2019-03-05T10:13:35.168Z,97.55
2019-03-05T10:14:35.160Z,97.27
2019-03-05T10:15:37.324Z,95.75
2019-03-05T10:16:35.192Z,96.60
2019-03-05T10:17:38.216Z,97.36
2019-03-05T10:18:35.134Z,95.75
2019-03-05T10:19:35.125Z,95.41
2019-03-05T10:20:35.121Z,96.22
2019-03-05T10:21:45.546Z,94.27
2019-03-05T10:22:35.102Z,94.56
2019-03-05T10:23:35.095Z,93.60
2019-03-05T10:24:35.089Z,92.36
2019-03-05T10:25:35.160Z,93.13
2019-03-05T10:26:35.090Z,92.46
2019-03-05T10:27:35.072Z,91.42
2019-03-05T10:28:35.062Z,89.89
2019-03-05T10:29:35.056Z,90.28
2019-03-05T10:30:35.045Z,89.70
2019-03-05T10:31:35.039Z,90.37
2019-03-05T10:32:35.032Z,89.51
2019-03-05T10:33:35.024Z,89.14
2019-03-05T10:34:35.014Z,89.84
2019-03-05T10:35:35.012Z,89.42
2019-03-05T10:36:35.006Z,88.42
2019-03-05T10:37:34.999Z,87.65
2019-03-05T10:38:34.988Z,87.27
2019-03-05T10:39:34.984Z,86.51
2019-03-05T10:40:34.973Z,86.99
2019-03-05T10:41:34.966Z,87.65
2019-03-05T10:42:34.958Z,86.90
2019-03-05T10:43:34.957Z,87.18
2019-03-05T10:44:34.948Z,86.51
2019-03-05T10:45:34.940Z,83.85
2019-03-05T10:46:34.932Z,85.03
2019-03-05T10:47:34.926Z,82.84
2019-03-05T10:48:34.923Z,82.46
2019-03-05T10:49:34.914Z,82.46
2019-03-05T10:50:34.906Z,82.27
2019-03-05T10:51:34.904Z,82.46
2019-03-05T10:52:34.949Z,81.89
2019-03-05T10:53:34.884Z,82.27
2019-03-05T10:54:34.877Z,81.79
2019-03-05T10:55:34.871Z,80.65
2019-03-05T10:56:34.865Z,80.75
2019-03-05T10:57:34.861Z,81.13
2019-03-05T10:58:34.856Z,79.70
2019-03-05T10:59:34.845Z,79.60
2019-03-05T11:00:34.839Z,80.27
2019-03-05T11:01:34.837Z,78.85
2019-03-05T11:02:34.826Z,77.85
2019-03-05T11:03:34.831Z,78.04
2019-03-05T11:04:45.210Z,77.76
2019-03-05T11:05:34.806Z,78.42
2019-03-05T11:06:34.801Z,78.85
2019-03-05T11:07:34.797Z,80.65
2019-03-05T11:08:34.789Z,79.41
2019-03-05T11:09:34.783Z,78.46
2019-03-05T11:10:34.776Z,77.61
2019-03-05T11:11:34.772Z,77.13
2019-03-05T11:12:34.848Z,76.75
2019-03-05T11:13:34.765Z,76.65
2019-03-05T11:14:34.862Z,76.75
2019-03-05T11:15:34.751Z,77.70
2019-03-05T11:16:34.742Z,78.75
2019-03-05T11:17:34.733Z,77.98
2019-03-05T11:18:34.726Z,76.75
2019-03-05T11:19:34.728Z,76.33
2019-03-05T11:20:34.714Z,77.37
2019-03-05T11:21:34.708Z,77.66
2019-03-05T11:22:34.701Z,77.47
2019-03-05T11:23:34.695Z,78.80
2019-03-05T11:24:34.691Z,79.66
2019-03-05T11:25:34.714Z,78.52
2019-03-05T11:26:34.679Z,79.19
2019-03-05T11:27:34.707Z,78.99
2019-03-05T11:28:34.665Z,79.19
2019-03-05T11:29:34.659Z,78.99
2019-03-05T11:30:36.356Z,78.14
2019-03-05T11:31:34.648Z,78.90
2019-03-05T11:32:34.644Z,79.57
2019-03-05T11:33:34.634Z,78.80
2019-03-05T11:34:34.628Z,78.80
2019-03-05T11:35:34.622Z,78.71
2019-03-05T11:36:34.614Z,78.99
2019-03-05T11:37:34.607Z,79.75
2019-03-05T11:38:34.611Z,79.28
2019-03-05T11:39:34.661Z,78.80
2019-03-05T11:40:34.595Z,78.71
2019-03-05T11:41:34.582Z,78.80
2019-03-05T11:42:34.577Z,77.66
2019-03-05T11:43:34.570Z,77.00
2019-03-05T11:44:34.566Z,77.47
2019-03-05T11:45:34.559Z,76.81
2019-03-05T11:46:34.552Z,77.42
2019-03-05T11:47:34.547Z,77.89
2019-03-05T11:48:34.543Z,77.51
2019-03-05T11:49:34.531Z,76.65
2019-03-05T11:50:34.523Z,76.61
2019-03-05T11:51:34.521Z,76.23
2019-03-05T11:52:34.517Z,76.14
2019-03-05T11:53:34.513Z,76.23
2019-03-05T11:54:34.505Z,76.33
2019-03-05T11:55:34.496Z,77.09
2019-03-05T11:56:34.494Z,77.56
2019-03-05T11:57:34.484Z,78.14
2019-03-05T11:58:34.480Z,78.99
2019-03-05T11:59:34.470Z,78.33
2019-03-05T12:00:34.467Z,79.38
2019-03-05T12:01:34.457Z,79.57
2019-03-05T12:02:34.453Z,80.52
2019-03-05T12:03:34.445Z,82.09
2019-03-05T12:04:34.438Z,81.24
2019-03-05T12:05:34.436Z,82.32
2019-03-05T12:06:34.431Z,82.09
2019-03-05T12:07:34.424Z,82.28
2019-03-05T12:08:34.412Z,83.23
2019-03-05T12:09:34.405Z,82.76
2019-03-05T12:10:34.403Z,83.37
2019-03-05T12:11:34.392Z,83.18
2019-03-05T12:12:34.386Z,83.65
2019-03-05T12:13:34.381Z,84.13
2019-03-05T12:14:34.375Z,82.99
2019-03-05T12:15:34.369Z,81.18
2019-03-05T12:16:34.361Z,81.18
2019-03-05T12:17:34.677Z,82.04
2019-03-05T12:18:34.349Z,81.85
2019-03-05T12:19:34.346Z,80.71
2019-03-05T12:20:34.334Z,80.42
2019-03-05T12:21:34.331Z,80.80
2019-03-05T12:22:34.325Z,80.42
2019-03-05T12:23:34.318Z,79.70
2019-03-05T12:24:34.307Z,79.22
2019-03-05T12:25:36.073Z,78.90
2019-03-05T12:26:34.295Z,77.89
2019-03-05T12:27:35.917Z,76.81
2019-03-05T12:28:34.288Z,77.13
2019-03-05T12:29:34.276Z,76.23
2019-03-05T12:30:34.270Z,76.14
2019-03-05T12:31:34.265Z,74.90
2019-03-05T12:32:34.257Z,74.80
2019-03-05T12:33:34.251Z,75.60
2019-03-05T12:34:34.243Z,76.37
2019-03-05T12:35:35.496Z,75.89
2019-03-05T12:36:34.230Z,74.94
2019-03-05T12:37:34.224Z,74.27
2019-03-05T12:38:34.220Z,74.65
2019-03-05T12:39:34.214Z,73.99
2019-03-05T12:40:34.205Z,74.46
2019-03-05T12:41:34.198Z,74.94
2019-03-05T12:42:34.192Z,74.94
2019-03-05T12:43:34.188Z,74.56
2019-03-05T12:44:34.178Z,74.31
2019-03-05T12:45:34.174Z,73.93
2019-03-05T12:46:34.165Z,74.21
2019-03-05T12:47:34.160Z,73.17
2019-03-05T12:48:39.853Z,73.74
2019-03-05T12:49:34.144Z,74.12
2019-03-05T12:50:34.138Z,73.93
2019-03-05T12:51:34.133Z,73.17
2019-03-05T12:52:34.125Z,72.50
2019-03-05T12:53:34.119Z,72.02
2019-03-05T12:54:34.116Z,72.78
2019-03-05T12:55:34.111Z,73.45
2019-03-05T12:56:34.100Z,73.65
2019-03-05T12:57:34.098Z,72.50
2019-03-05T12:58:34.090Z,72.94
2019-03-05T12:59:34.082Z,73.13